sensor_id;sensor_type;location;lat;lon;timestamp;P1;durP1;ratioP1;P2;durP2;ratioP2
68250;SDS011;55066;51.560;4.642;2022-10-15T00:01:09;54.63;;;24.00;;
68250;SDS011;55066;51.560;4.642;2022-10-15T00:03:40;52.75;;;23.90;;
68250;SDS011;55066;51.560;4.642;2022-10-15T00:06:08;63.13;;;24.95;;
68250;SDS011;55066;51.560;4.642;2022-10-15T00:08:38;55.90;;;23.92;;
68250;SDS011;55066;51.560;4.642;2022-10-15T00:11:39;56.70;;;24.17;;
68250;SDS011;55066;51.560;4.642;2022-10-15T00:13:59;50.92;;;23.65;;
68250;SDS011;55066;51.560;4.642;2022-10-15T00:16:26;55.97;;;24.07;;
68250;SDS011;55066;51.560;4.642;2022-10-15T00:18:55;57.10;;;23.85;;
68250;SDS011;55066;51.560;4.642;2022-10-15T00:21:22;55.78;;;23.75;;
68250;SDS011;55066;51.560;4.642;2022-10-15T00:23:47;58.47;;;24.77;;
68250;SDS011;55066;51.560;4.642;2022-10-15T00:26:18;59.10;;;25.05;;
68250;SDS011;55066;51.560;4.642;2022-10-15T00:28:48;52.72;;;23.40;;
68250;SDS011;55066;51.560;4.642;2022-10-15T00:31:20;49.95;;;22.88;;
68250;SDS011;55066;51.560;4.642;2022-10-15T00:33:49;57.57;;;24.33;;
68250;SDS011;55066;51.560;4.642;2022-10-15T00:36:16;56.03;;;24.90;;
68250;SDS011;55066;51.560;4.642;2022-10-15T00:38:46;54.47;;;24.33;;
68250;SDS011;55066;51.560;4.642;2022-10-15T00:41:15;61.58;;;25.13;;
68250;SDS011;55066;51.560;4.642;2022-10-15T00:46:17;53.47;;;23.93;;
68250;SDS011;55066;51.560;4.642;2022-10-15T00:48:47;57.22;;;23.98;;
68250;SDS011;55066;51.560;4.642;2022-10-15T00:51:15;51.25;;;23.45;;
68250;SDS011;55066;51.560;4.642;2022-10-15T00:53:43;54.28;;;23.48;;
68250;SDS011;55066;51.560;4.642;2022-10-15T00:56:10;50.53;;;22.83;;
68250;SDS011;55066;51.560;4.642;2022-10-15T00:58:36;48.57;;;22.47;;
68250;SDS011;55066;51.560;4.642;2022-10-15T01:01:06;49.55;;;22.75;;
68250;SDS011;55066;51.560;4.642;2022-10-15T01:03:36;53.75;;;23.27;;
68250;SDS011;55066;51.560;4.642;2022-10-15T01:06:18;53.22;;;22.67;;
68250;SDS011;55066;51.560;4.642;2022-10-15T01:08:57;54.65;;;23.65;;
68250;SDS011;55066;51.560;4.642;2022-10-15T01:11:45;48.07;;;21.53;;
68250;SDS011;55066;51.560;4.642;2022-10-15T01:17:29;51.15;;;23.15;;
68250;SDS011;55066;51.560;4.642;2022-10-15T01:32:16;50.55;;;23.38;;
68250;SDS011;55066;51.560;4.642;2022-10-15T01:34:55;50.30;;;23.23;;
68250;SDS011;55066;51.560;4.642;2022-10-15T01:37:37;55.33;;;24.17;;
68250;SDS011;55066;51.560;4.642;2022-10-15T01:40:24;50.30;;;22.47;;
68250;SDS011;55066;51.560;4.642;2022-10-15T01:43:06;48.85;;;23.20;;
68250;SDS011;55066;51.560;4.642;2022-10-15T01:46:01;48.75;;;23.40;;
68250;SDS011;55066;51.560;4.642;2022-10-15T01:48:36;48.95;;;22.80;;
68250;SDS011;55066;51.560;4.642;2022-10-15T01:51:03;51.35;;;22.92;;
68250;SDS011;55066;51.560;4.642;2022-10-15T01:53:32;48.23;;;22.63;;
68250;SDS011;55066;51.560;4.642;2022-10-15T01:56:00;50.70;;;23.23;;
68250;SDS011;55066;51.560;4.642;2022-10-15T01:58:31;51.72;;;23.08;;
68250;SDS011;55066;51.560;4.642;2022-10-15T02:01:04;48.72;;;21.77;;
68250;SDS011;55066;51.560;4.642;2022-10-15T02:03:30;45.65;;;22.60;;
68250;SDS011;55066;51.560;4.642;2022-10-15T02:05:59;49.70;;;22.40;;
68250;SDS011;55066;51.560;4.642;2022-10-15T02:08:39;45.65;;;20.83;;
68250;SDS011;55066;51.560;4.642;2022-10-15T02:11:16;46.47;;;21.47;;
68250;SDS011;55066;51.560;4.642;2022-10-15T02:16:13;51.28;;;22.85;;
68250;SDS011;55066;51.560;4.642;2022-10-15T02:21:23;42.35;;;20.70;;
68250;SDS011;55066;51.560;4.642;2022-10-15T02:26:35;51.03;;;23.35;;
68250;SDS011;55066;51.560;4.642;2022-10-15T02:29:03;50.97;;;22.25;;
68250;SDS011;55066;51.560;4.642;2022-10-15T02:31:34;49.88;;;21.75;;
68250;SDS011;55066;51.560;4.642;2022-10-15T02:34:05;50.70;;;22.25;;
68250;SDS011;55066;51.560;4.642;2022-10-15T02:36:36;49.50;;;22.80;;
68250;SDS011;55066;51.560;4.642;2022-10-15T02:39:05;49.92;;;22.23;;
68250;SDS011;55066;51.560;4.642;2022-10-15T02:41:33;46.85;;;19.83;;
68250;SDS011;55066;51.560;4.642;2022-10-15T02:44:00;47.60;;;20.33;;
68250;SDS011;55066;51.560;4.642;2022-10-15T02:46:27;48.00;;;22.60;;
68250;SDS011;55066;51.560;4.642;2022-10-15T02:48:53;51.53;;;23.17;;
68250;SDS011;55066;51.560;4.642;2022-10-15T02:51:42;51.42;;;22.10;;
68250;SDS011;55066;51.560;4.642;2022-10-15T02:54:08;51.22;;;23.27;;
68250;SDS011;55066;51.560;4.642;2022-10-15T02:56:34;51.70;;;23.02;;
68250;SDS011;55066;51.560;4.642;2022-10-15T02:59:04;54.40;;;24.75;;
68250;SDS011;55066;51.560;4.642;2022-10-15T03:01:30;61.00;;;23.85;;
68250;SDS011;55066;51.560;4.642;2022-10-15T03:03:57;53.85;;;23.75;;
68250;SDS011;55066;51.560;4.642;2022-10-15T03:06:23;56.00;;;24.00;;
68250;SDS011;55066;51.560;4.642;2022-10-15T03:08:50;57.00;;;24.58;;
68250;SDS011;55066;51.560;4.642;2022-10-15T03:13:59;57.92;;;24.13;;
68250;SDS011;55066;51.560;4.642;2022-10-15T03:19:16;60.15;;;24.75;;
68250;SDS011;55066;51.560;4.642;2022-10-15T03:21:44;64.65;;;24.90;;
68250;SDS011;55066;51.560;4.642;2022-10-15T03:26:54;58.15;;;22.63;;
68250;SDS011;55066;51.560;4.642;2022-10-15T03:32:16;57.42;;;24.13;;
68250;SDS011;55066;51.560;4.642;2022-10-15T03:34:41;62.40;;;25.17;;
68250;SDS011;55066;51.560;4.642;2022-10-15T03:37:11;62.38;;;23.77;;
68250;SDS011;55066;51.560;4.642;2022-10-15T03:39:38;65.07;;;24.30;;
68250;SDS011;55066;51.560;4.642;2022-10-15T03:42:07;56.85;;;22.05;;
68250;SDS011;55066;51.560;4.642;2022-10-15T03:44:39;64.93;;;24.23;;
68250;SDS011;55066;51.560;4.642;2022-10-15T03:47:09;57.03;;;22.87;;
68250;SDS011;55066;51.560;4.642;2022-10-15T03:49:44;64.75;;;24.00;;
68250;SDS011;55066;51.560;4.642;2022-10-15T03:52:10;50.78;;;20.50;;
68250;SDS011;55066;51.560;4.642;2022-10-15T03:54:39;50.60;;;20.60;;
68250;SDS011;55066;51.560;4.642;2022-10-15T03:57:05;59.67;;;22.10;;
68250;SDS011;55066;51.560;4.642;2022-10-15T03:59:35;54.08;;;22.60;;
68250;SDS011;55066;51.560;4.642;2022-10-15T04:02:03;55.80;;;20.83;;
68250;SDS011;55066;51.560;4.642;2022-10-15T04:04:30;58.10;;;21.50;;
68250;SDS011;55066;51.560;4.642;2022-10-15T04:06:57;57.33;;;21.40;;
68250;SDS011;55066;51.560;4.642;2022-10-15T04:09:23;52.67;;;21.10;;
68250;SDS011;55066;51.560;4.642;2022-10-15T04:11:48;63.30;;;22.13;;
68250;SDS011;55066;51.560;4.642;2022-10-15T04:14:14;61.20;;;22.37;;
68250;SDS011;55066;51.560;4.642;2022-10-15T04:16:41;60.83;;;21.98;;
68250;SDS011;55066;51.560;4.642;2022-10-15T04:19:13;63.30;;;23.27;;
68250;SDS011;55066;51.560;4.642;2022-10-15T04:21:41;70.68;;;22.80;;
68250;SDS011;55066;51.560;4.642;2022-10-15T04:24:14;62.37;;;21.23;;
68250;SDS011;55066;51.560;4.642;2022-10-15T04:26:40;59.45;;;21.33;;
68250;SDS011;55066;51.560;4.642;2022-10-15T04:29:06;62.72;;;22.02;;
68250;SDS011;55066;51.560;4.642;2022-10-15T04:31:32;55.88;;;21.00;;
68250;SDS011;55066;51.560;4.642;2022-10-15T04:33:59;66.30;;;22.48;;
68250;SDS011;55066;51.560;4.642;2022-10-15T04:36:26;60.75;;;21.25;;
68250;SDS011;55066;51.560;4.642;2022-10-15T04:38:58;64.32;;;21.65;;
68250;SDS011;55066;51.560;4.642;2022-10-15T04:41:32;62.10;;;21.67;;
68250;SDS011;55066;51.560;4.642;2022-10-15T04:44:02;58.65;;;20.42;;
68250;SDS011;55066;51.560;4.642;2022-10-15T04:46:30;69.70;;;23.33;;
68250;SDS011;55066;51.560;4.642;2022-10-15T04:49:00;78.38;;;23.40;;
68250;SDS011;55066;51.560;4.642;2022-10-15T04:51:25;81.07;;;24.03;;
68250;SDS011;55066;51.560;4.642;2022-10-15T04:53:59;78.53;;;24.60;;
68250;SDS011;55066;51.560;4.642;2022-10-15T04:56:26;79.72;;;23.58;;
68250;SDS011;55066;51.560;4.642;2022-10-15T04:58:52;77.60;;;22.60;;
68250;SDS011;55066;51.560;4.642;2022-10-15T05:01:18;91.47;;;24.43;;
68250;SDS011;55066;51.560;4.642;2022-10-15T05:03:58;83.15;;;22.73;;
68250;SDS011;55066;51.560;4.642;2022-10-15T05:06:23;76.35;;;22.50;;
68250;SDS011;55066;51.560;4.642;2022-10-15T05:08:54;75.60;;;21.10;;
68250;SDS011;55066;51.560;4.642;2022-10-15T05:11:26;80.97;;;21.77;;
68250;SDS011;55066;51.560;4.642;2022-10-15T05:13:56;80.82;;;22.48;;
68250;SDS011;55066;51.560;4.642;2022-10-15T05:16:24;77.00;;;21.83;;
68250;SDS011;55066;51.560;4.642;2022-10-15T05:18:59;79.05;;;21.63;;
68250;SDS011;55066;51.560;4.642;2022-10-15T05:21:29;66.57;;;20.83;;
68250;SDS011;55066;51.560;4.642;2022-10-15T05:23:58;82.65;;;22.45;;
68250;SDS011;55066;51.560;4.642;2022-10-15T05:26:43;87.35;;;22.13;;
68250;SDS011;55066;51.560;4.642;2022-10-15T05:29:08;87.53;;;21.63;;
68250;SDS011;55066;51.560;4.642;2022-10-15T05:31:34;84.03;;;21.15;;
68250;SDS011;55066;51.560;4.642;2022-10-15T05:34:08;80.20;;;20.87;;
68250;SDS011;55066;51.560;4.642;2022-10-15T05:36:43;78.43;;;21.73;;
68250;SDS011;55066;51.560;4.642;2022-10-15T05:39:09;81.73;;;20.93;;
68250;SDS011;55066;51.560;4.642;2022-10-15T05:41:40;80.72;;;20.98;;
68250;SDS011;55066;51.560;4.642;2022-10-15T05:44:06;66.88;;;19.92;;
68250;SDS011;55066;51.560;4.642;2022-10-15T05:46:32;73.60;;;19.93;;
68250;SDS011;55066;51.560;4.642;2022-10-15T05:49:01;73.45;;;19.40;;
68250;SDS011;55066;51.560;4.642;2022-10-15T05:51:29;83.63;;;21.00;;
68250;SDS011;55066;51.560;4.642;2022-10-15T05:54:04;59.20;;;17.40;;
68250;SDS011;55066;51.560;4.642;2022-10-15T05:56:33;64.67;;;18.37;;
68250;SDS011;55066;51.560;4.642;2022-10-15T05:58:59;74.80;;;19.73;;
68250;SDS011;55066;51.560;4.642;2022-10-15T06:01:26;76.43;;;19.58;;
68250;SDS011;55066;51.560;4.642;2022-10-15T06:03:53;78.32;;;19.98;;
68250;SDS011;55066;51.560;4.642;2022-10-15T06:06:21;77.93;;;19.47;;
68250;SDS011;55066;51.560;4.642;2022-10-15T06:08:48;73.75;;;18.77;;
68250;SDS011;55066;51.560;4.642;2022-10-15T06:11:16;76.10;;;19.38;;
68250;SDS011;55066;51.560;4.642;2022-10-15T06:13:44;83.70;;;20.60;;
68250;SDS011;55066;51.560;4.642;2022-10-15T06:16:11;92.57;;;21.38;;
68250;SDS011;55066;51.560;4.642;2022-10-15T06:18:38;92.55;;;20.85;;
68250;SDS011;55066;51.560;4.642;2022-10-15T06:21:04;62.13;;;17.35;;
68250;SDS011;55066;51.560;4.642;2022-10-15T06:23:30;77.13;;;18.38;;
68250;SDS011;55066;51.560;4.642;2022-10-15T06:25:55;92.15;;;21.58;;
68250;SDS011;55066;51.560;4.642;2022-10-15T06:28:25;85.70;;;21.23;;
68250;SDS011;55066;51.560;4.642;2022-10-15T06:30:50;89.00;;;19.57;;
68250;SDS011;55066;51.560;4.642;2022-10-15T06:33:16;86.63;;;20.27;;
68250;SDS011;55066;51.560;4.642;2022-10-15T06:35:41;88.63;;;20.33;;
68250;SDS011;55066;51.560;4.642;2022-10-15T06:38:07;73.13;;;18.30;;
68250;SDS011;55066;51.560;4.642;2022-10-15T06:40:32;76.93;;;18.83;;
68250;SDS011;55066;51.560;4.642;2022-10-15T06:43:02;73.00;;;18.30;;
68250;SDS011;55066;51.560;4.642;2022-10-15T06:45:32;72.30;;;18.50;;
68250;SDS011;55066;51.560;4.642;2022-10-15T06:48:04;64.20;;;17.15;;
68250;SDS011;55066;51.560;4.642;2022-10-15T06:50:32;69.23;;;17.13;;
68250;SDS011;55066;51.560;4.642;2022-10-15T06:52:59;63.10;;;17.40;;
68250;SDS011;55066;51.560;4.642;2022-10-15T06:55:26;66.00;;;16.42;;
68250;SDS011;55066;51.560;4.642;2022-10-15T06:57:53;70.35;;;17.92;;
68250;SDS011;55066;51.560;4.642;2022-10-15T07:00:20;62.00;;;16.27;;
68250;SDS011;55066;51.560;4.642;2022-10-15T07:02:47;62.83;;;15.80;;
68250;SDS011;55066;51.560;4.642;2022-10-15T07:05:12;55.65;;;15.25;;
68250;SDS011;55066;51.560;4.642;2022-10-15T07:07:37;46.07;;;14.60;;
68250;SDS011;55066;51.560;4.642;2022-10-15T07:10:03;56.63;;;15.17;;
68250;SDS011;55066;51.560;4.642;2022-10-15T07:12:29;50.08;;;14.55;;
68250;SDS011;55066;51.560;4.642;2022-10-15T07:14:55;45.97;;;15.03;;
68250;SDS011;55066;51.560;4.642;2022-10-15T07:17:20;47.97;;;14.33;;
68250;SDS011;55066;51.560;4.642;2022-10-15T07:19:46;48.67;;;14.13;;
68250;SDS011;55066;51.560;4.642;2022-10-15T07:22:11;47.17;;;15.55;;
68250;SDS011;55066;51.560;4.642;2022-10-15T07:24:37;53.27;;;14.87;;
68250;SDS011;55066;51.560;4.642;2022-10-15T07:27:02;53.83;;;14.90;;
68250;SDS011;55066;51.560;4.642;2022-10-15T07:29:28;41.43;;;13.63;;
68250;SDS011;55066;51.560;4.642;2022-10-15T07:31:53;42.42;;;13.18;;
68250;SDS011;55066;51.560;4.642;2022-10-15T07:34:18;32.93;;;11.93;;
68250;SDS011;55066;51.560;4.642;2022-10-15T07:36:44;37.33;;;12.80;;
68250;SDS011;55066;51.560;4.642;2022-10-15T07:39:09;42.53;;;13.60;;
68250;SDS011;55066;51.560;4.642;2022-10-15T07:41:35;38.08;;;12.43;;
68250;SDS011;55066;51.560;4.642;2022-10-15T07:44:00;41.60;;;13.70;;
68250;SDS011;55066;51.560;4.642;2022-10-15T07:46:26;43.67;;;13.50;;
68250;SDS011;55066;51.560;4.642;2022-10-15T07:48:53;47.05;;;13.63;;
68250;SDS011;55066;51.560;4.642;2022-10-15T07:51:19;41.50;;;13.70;;
68250;SDS011;55066;51.560;4.642;2022-10-15T07:53:44;37.80;;;13.47;;
68250;SDS011;55066;51.560;4.642;2022-10-15T07:56:11;38.80;;;12.20;;
68250;SDS011;55066;51.560;4.642;2022-10-15T07:58:38;33.65;;;10.90;;
68250;SDS011;55066;51.560;4.642;2022-10-15T08:01:04;29.47;;;11.00;;
68250;SDS011;55066;51.560;4.642;2022-10-15T08:03:32;26.75;;;10.25;;
68250;SDS011;55066;51.560;4.642;2022-10-15T08:06:01;26.27;;;9.50;;
68250;SDS011;55066;51.560;4.642;2022-10-15T08:08:28;27.10;;;9.77;;
68250;SDS011;55066;51.560;4.642;2022-10-15T08:10:54;25.42;;;9.57;;
68250;SDS011;55066;51.560;4.642;2022-10-15T08:13:19;26.98;;;8.73;;
68250;SDS011;55066;51.560;4.642;2022-10-15T08:15:48;27.60;;;9.30;;
68250;SDS011;55066;51.560;4.642;2022-10-15T08:18:14;23.52;;;8.40;;
68250;SDS011;55066;51.560;4.642;2022-10-15T08:20:39;24.97;;;8.60;;
68250;SDS011;55066;51.560;4.642;2022-10-15T08:23:12;22.42;;;8.57;;
68250;SDS011;55066;51.560;4.642;2022-10-15T08:25:39;19.77;;;7.43;;
68250;SDS011;55066;51.560;4.642;2022-10-15T08:28:05;21.30;;;8.40;;
68250;SDS011;55066;51.560;4.642;2022-10-15T08:30:30;17.50;;;7.30;;
68250;SDS011;55066;51.560;4.642;2022-10-15T08:32:55;17.38;;;6.85;;
68250;SDS011;55066;51.560;4.642;2022-10-15T08:35:21;16.60;;;6.53;;
68250;SDS011;55066;51.560;4.642;2022-10-15T08:37:46;18.83;;;7.07;;
68250;SDS011;55066;51.560;4.642;2022-10-15T08:40:11;20.53;;;7.17;;
68250;SDS011;55066;51.560;4.642;2022-10-15T08:42:41;17.85;;;6.80;;
68250;SDS011;55066;51.560;4.642;2022-10-15T08:45:13;19.58;;;6.93;;
68250;SDS011;55066;51.560;4.642;2022-10-15T08:47:43;18.50;;;7.37;;
68250;SDS011;55066;51.560;4.642;2022-10-15T08:53:03;21.30;;;7.25;;
68250;SDS011;55066;51.560;4.642;2022-10-15T08:55:31;17.05;;;7.00;;
68250;SDS011;55066;51.560;4.642;2022-10-15T09:03:28;20.38;;;7.65;;
68250;SDS011;55066;51.560;4.642;2022-10-15T09:14:15;20.13;;;7.22;;
68250;SDS011;55066;51.560;4.642;2022-10-15T09:16:45;17.52;;;7.03;;
68250;SDS011;55066;51.560;4.642;2022-10-15T09:19:19;18.27;;;6.85;;
68250;SDS011;55066;51.560;4.642;2022-10-15T09:21:49;18.30;;;6.60;;
68250;SDS011;55066;51.560;4.642;2022-10-15T09:24:18;19.50;;;7.23;;
68250;SDS011;55066;51.560;4.642;2022-10-15T09:27:08;18.98;;;6.80;;
68250;SDS011;55066;51.560;4.642;2022-10-15T09:29:49;19.02;;;6.63;;
68250;SDS011;55066;51.560;4.642;2022-10-15T09:35:04;15.13;;;6.00;;
68250;SDS011;55066;51.560;4.642;2022-10-15T09:37:55;16.90;;;6.43;;
68250;SDS011;55066;51.560;4.642;2022-10-15T09:43:25;14.77;;;6.07;;
68250;SDS011;55066;51.560;4.642;2022-10-15T09:45:56;17.33;;;6.90;;
68250;SDS011;55066;51.560;4.642;2022-10-15T09:48:23;19.60;;;7.10;;
68250;SDS011;55066;51.560;4.642;2022-10-15T09:56:42;16.15;;;6.53;;
68250;SDS011;55066;51.560;4.642;2022-10-15T09:59:18;16.08;;;7.22;;
68250;SDS011;55066;51.560;4.642;2022-10-15T10:02:28;18.67;;;7.32;;
68250;SDS011;55066;51.560;4.642;2022-10-15T10:04:36;15.83;;;6.77;;
68250;SDS011;55066;51.560;4.642;2022-10-15T10:07:03;17.00;;;6.80;;
68250;SDS011;55066;51.560;4.642;2022-10-15T10:09:37;13.68;;;6.32;;
68250;SDS011;55066;51.560;4.642;2022-10-15T10:12:26;16.17;;;6.47;;
68250;SDS011;55066;51.560;4.642;2022-10-15T10:14:55;13.75;;;6.13;;
68250;SDS011;55066;51.560;4.642;2022-10-15T10:17:24;13.43;;;5.43;;
68250;SDS011;55066;51.560;4.642;2022-10-15T10:22:40;13.65;;;5.57;;
68250;SDS011;55066;51.560;4.642;2022-10-15T10:25:28;13.17;;;5.57;;
68250;SDS011;55066;51.560;4.642;2022-10-15T10:27:57;13.15;;;5.30;;
68250;SDS011;55066;51.560;4.642;2022-10-15T10:33:11;11.60;;;5.05;;
68250;SDS011;55066;51.560;4.642;2022-10-15T10:35:45;10.90;;;4.93;;
68250;SDS011;55066;51.560;4.642;2022-10-15T10:38:20;10.50;;;5.30;;
68250;SDS011;55066;51.560;4.642;2022-10-15T10:40:51;10.43;;;5.40;;
68250;SDS011;55066;51.560;4.642;2022-10-15T10:43:23;13.02;;;6.18;;
68250;SDS011;55066;51.560;4.642;2022-10-15T10:45:58;13.18;;;5.57;;
68250;SDS011;55066;51.560;4.642;2022-10-15T10:48:45;17.80;;;6.22;;
68250;SDS011;55066;51.560;4.642;2022-10-15T10:51:14;13.23;;;6.30;;
68250;SDS011;55066;51.560;4.642;2022-10-15T10:56:23;17.73;;;7.97;;
68250;SDS011;55066;51.560;4.642;2022-10-15T10:59:12;16.98;;;7.88;;
68250;SDS011;55066;51.560;4.642;2022-10-15T11:01:42;16.17;;;8.18;;
68250;SDS011;55066;51.560;4.642;2022-10-15T11:04:12;18.90;;;8.40;;
68250;SDS011;55066;51.560;4.642;2022-10-15T11:06:57;17.33;;;8.90;;
68250;SDS011;55066;51.560;4.642;2022-10-15T11:12:22;17.58;;;8.40;;
68250;SDS011;55066;51.560;4.642;2022-10-15T11:15:01;18.67;;;8.68;;
68250;SDS011;55066;51.560;4.642;2022-10-15T11:20:04;17.38;;;9.90;;
68250;SDS011;55066;51.560;4.642;2022-10-15T11:28:28;13.15;;;7.43;;
68250;SDS011;55066;51.560;4.642;2022-10-15T11:31:14;12.40;;;6.87;;
68250;SDS011;55066;51.560;4.642;2022-10-15T11:44:42;13.27;;;7.23;;
68250;SDS011;55066;51.560;4.642;2022-10-15T11:47:26;15.10;;;7.65;;
68250;SDS011;55066;51.560;4.642;2022-10-15T11:55:54;14.65;;;6.80;;
68250;SDS011;55066;51.560;4.642;2022-10-15T11:58:28;13.47;;;6.60;;
68250;SDS011;55066;51.560;4.642;2022-10-15T12:00:59;10.93;;;5.82;;
68250;SDS011;55066;51.560;4.642;2022-10-15T12:03:32;13.50;;;6.00;;
68250;SDS011;55066;51.560;4.642;2022-10-15T12:06:11;11.93;;;6.30;;
68250;SDS011;55066;51.560;4.642;2022-10-15T12:08:40;17.80;;;6.68;;
68250;SDS011;55066;51.560;4.642;2022-10-15T12:11:25;12.30;;;6.27;;
68250;SDS011;55066;51.560;4.642;2022-10-15T12:14:12;10.18;;;4.85;;
68250;SDS011;55066;51.560;4.642;2022-10-15T12:16:45;10.35;;;5.60;;
68250;SDS011;55066;51.560;4.642;2022-10-15T12:19:25;9.48;;;4.85;;
68250;SDS011;55066;51.560;4.642;2022-10-15T12:22:00;9.00;;;4.70;;
68250;SDS011;55066;51.560;4.642;2022-10-15T12:27:15;7.63;;;4.10;;
68250;SDS011;55066;51.560;4.642;2022-10-15T12:30:28;10.13;;;4.85;;
68250;SDS011;55066;51.560;4.642;2022-10-15T12:32:35;8.85;;;4.53;;
68250;SDS011;55066;51.560;4.642;2022-10-15T12:35:06;7.95;;;4.15;;
68250;SDS011;55066;51.560;4.642;2022-10-15T12:37:45;8.10;;;3.97;;
68250;SDS011;55066;51.560;4.642;2022-10-15T12:40:22;7.88;;;3.90;;
68250;SDS011;55066;51.560;4.642;2022-10-15T12:42:55;8.60;;;4.20;;
68250;SDS011;55066;51.560;4.642;2022-10-15T12:45:33;6.65;;;2.30;;
68250;SDS011;55066;51.560;4.642;2022-10-15T12:50:31;2.90;;;1.43;;
68250;SDS011;55066;51.560;4.642;2022-10-15T12:55:34;2.50;;;1.30;;
68250;SDS011;55066;51.560;4.642;2022-10-15T13:01:03;3.38;;;1.02;;
68250;SDS011;55066;51.560;4.642;2022-10-15T13:03:42;3.15;;;1.20;;
68250;SDS011;55066;51.560;4.642;2022-10-15T13:11:30;3.38;;;1.20;;
68250;SDS011;55066;51.560;4.642;2022-10-15T13:14:00;3.63;;;1.02;;
68250;SDS011;55066;51.560;4.642;2022-10-15T13:16:33;3.05;;;1.13;;
68250;SDS011;55066;51.560;4.642;2022-10-15T13:18:59;4.03;;;1.10;;
68250;SDS011;55066;51.560;4.642;2022-10-15T13:21:47;2.50;;;1.00;;
68250;SDS011;55066;51.560;4.642;2022-10-15T13:24:19;2.17;;;0.90;;
68250;SDS011;55066;51.560;4.642;2022-10-15T13:26:46;2.92;;;1.00;;
68250;SDS011;55066;51.560;4.642;2022-10-15T13:29:24;3.27;;;1.00;;
68250;SDS011;55066;51.560;4.642;2022-10-15T13:31:52;2.25;;;0.70;;
68250;SDS011;55066;51.560;4.642;2022-10-15T13:36:49;2.45;;;0.80;;
68250;SDS011;55066;51.560;4.642;2022-10-15T13:39:23;1.93;;;0.60;;
68250;SDS011;55066;51.560;4.642;2022-10-15T13:42:15;3.30;;;0.77;;
68250;SDS011;55066;51.560;4.642;2022-10-15T13:44:41;2.85;;;0.75;;
68250;SDS011;55066;51.560;4.642;2022-10-15T13:47:24;3.17;;;0.70;;
68250;SDS011;55066;51.560;4.642;2022-10-15T13:53:32;2.63;;;0.60;;
68250;SDS011;55066;51.560;4.642;2022-10-15T13:55:43;8.75;;;0.82;;
68250;SDS011;55066;51.560;4.642;2022-10-15T14:00:42;5.30;;;0.80;;
68250;SDS011;55066;51.560;4.642;2022-10-15T14:03:20;1.90;;;0.60;;
68250;SDS011;55066;51.560;4.642;2022-10-15T14:05:49;3.90;;;1.10;;
68250;SDS011;55066;51.560;4.642;2022-10-15T14:08:35;3.78;;;0.80;;
68250;SDS011;55066;51.560;4.642;2022-10-15T14:11:01;4.93;;;0.73;;
68250;SDS011;55066;51.560;4.642;2022-10-15T14:13:26;2.03;;;0.70;;
68250;SDS011;55066;51.560;4.642;2022-10-15T14:16:10;3.92;;;0.73;;
68250;SDS011;55066;51.560;4.642;2022-10-15T14:18:42;3.83;;;0.60;;
68250;SDS011;55066;51.560;4.642;2022-10-15T14:21:13;2.90;;;0.60;;
68250;SDS011;55066;51.560;4.642;2022-10-15T14:23:42;2.92;;;0.60;;
68250;SDS011;55066;51.560;4.642;2022-10-15T14:26:09;3.22;;;0.60;;
68250;SDS011;55066;51.560;4.642;2022-10-15T14:28:36;5.63;;;0.73;;
68250;SDS011;55066;51.560;4.642;2022-10-15T14:31:04;3.28;;;0.82;;
68250;SDS011;55066;51.560;4.642;2022-10-15T14:36:20;4.55;;;0.90;;
68250;SDS011;55066;51.560;4.642;2022-10-15T14:38:48;4.07;;;0.80;;
68250;SDS011;55066;51.560;4.642;2022-10-15T14:43:59;7.18;;;0.90;;
68250;SDS011;55066;51.560;4.642;2022-10-15T14:46:34;3.87;;;0.60;;
68250;SDS011;55066;51.560;4.642;2022-10-15T14:49:01;2.75;;;0.50;;
68250;SDS011;55066;51.560;4.642;2022-10-15T14:51:27;2.70;;;0.70;;
68250;SDS011;55066;51.560;4.642;2022-10-15T14:53:52;3.33;;;0.60;;
68250;SDS011;55066;51.560;4.642;2022-10-15T14:56:19;1.90;;;0.52;;
68250;SDS011;55066;51.560;4.642;2022-10-15T14:58:48;3.80;;;1.00;;
68250;SDS011;55066;51.560;4.642;2022-10-15T15:01:17;5.00;;;0.77;;
68250;SDS011;55066;51.560;4.642;2022-10-15T15:03:48;3.95;;;0.90;;
68250;SDS011;55066;51.560;4.642;2022-10-15T15:06:18;7.53;;;1.70;;
68250;SDS011;55066;51.560;4.642;2022-10-15T15:08:44;5.32;;;0.90;;
68250;SDS011;55066;51.560;4.642;2022-10-15T15:11:14;7.77;;;0.67;;
68250;SDS011;55066;51.560;4.642;2022-10-15T15:13:43;2.85;;;0.80;;
68250;SDS011;55066;51.560;4.642;2022-10-15T15:16:10;1.95;;;0.60;;
68250;SDS011;55066;51.560;4.642;2022-10-15T15:18:36;2.17;;;0.55;;
68250;SDS011;55066;51.560;4.642;2022-10-15T15:21:02;2.63;;;0.50;;
68250;SDS011;55066;51.560;4.642;2022-10-15T15:23:32;2.65;;;0.63;;
68250;SDS011;55066;51.560;4.642;2022-10-15T15:25:59;2.47;;;0.60;;
68250;SDS011;55066;51.560;4.642;2022-10-15T15:28:25;3.03;;;0.70;;
68250;SDS011;55066;51.560;4.642;2022-10-15T15:30:55;6.35;;;0.77;;
68250;SDS011;55066;51.560;4.642;2022-10-15T15:33:26;2.13;;;0.57;;
68250;SDS011;55066;51.560;4.642;2022-10-15T15:38:36;2.33;;;0.80;;
68250;SDS011;55066;51.560;4.642;2022-10-15T15:41:02;3.80;;;0.70;;
68250;SDS011;55066;51.560;4.642;2022-10-15T15:43:39;8.07;;;0.82;;
68250;SDS011;55066;51.560;4.642;2022-10-15T15:46:04;2.63;;;0.60;;
68250;SDS011;55066;51.560;4.642;2022-10-15T15:48:30;3.72;;;0.73;;
68250;SDS011;55066;51.560;4.642;2022-10-15T15:50:57;4.53;;;1.00;;
68250;SDS011;55066;51.560;4.642;2022-10-15T15:53:25;2.15;;;0.60;;
68250;SDS011;55066;51.560;4.642;2022-10-15T15:55:51;4.77;;;0.93;;
68250;SDS011;55066;51.560;4.642;2022-10-15T15:58:16;2.73;;;0.67;;
68250;SDS011;55066;51.560;4.642;2022-10-15T16:00:41;4.80;;;0.97;;
68250;SDS011;55066;51.560;4.642;2022-10-15T16:03:07;7.80;;;1.00;;
68250;SDS011;55066;51.560;4.642;2022-10-15T16:05:36;5.40;;;1.03;;
68250;SDS011;55066;51.560;4.642;2022-10-15T16:08:02;7.47;;;1.30;;
68250;SDS011;55066;51.560;4.642;2022-10-15T16:10:27;3.03;;;0.90;;
68250;SDS011;55066;51.560;4.642;2022-10-15T16:12:53;2.58;;;0.85;;
68250;SDS011;55066;51.560;4.642;2022-10-15T16:15:20;6.87;;;0.80;;
68250;SDS011;55066;51.560;4.642;2022-10-15T16:17:45;8.57;;;1.00;;
68250;SDS011;55066;51.560;4.642;2022-10-15T16:20:11;4.23;;;1.40;;
68250;SDS011;55066;51.560;4.642;2022-10-15T16:22:36;3.17;;;1.10;;
68250;SDS011;55066;51.560;4.642;2022-10-15T16:25:02;3.78;;;0.90;;
68250;SDS011;55066;51.560;4.642;2022-10-15T16:27:28;6.70;;;1.30;;
68250;SDS011;55066;51.560;4.642;2022-10-15T16:29:53;5.20;;;1.30;;
68250;SDS011;55066;51.560;4.642;2022-10-15T16:32:19;6.03;;;1.00;;
68250;SDS011;55066;51.560;4.642;2022-10-15T16:34:44;9.00;;;1.30;;
68250;SDS011;55066;51.560;4.642;2022-10-15T16:37:10;3.77;;;1.00;;
68250;SDS011;55066;51.560;4.642;2022-10-15T16:39:35;9.23;;;1.03;;
68250;SDS011;55066;51.560;4.642;2022-10-15T16:42:00;3.10;;;1.20;;
68250;SDS011;55066;51.560;4.642;2022-10-15T16:44:26;5.93;;;1.10;;
68250;SDS011;55066;51.560;4.642;2022-10-15T16:46:52;4.63;;;1.13;;
68250;SDS011;55066;51.560;4.642;2022-10-15T16:49:17;6.57;;;1.20;;
68250;SDS011;55066;51.560;4.642;2022-10-15T16:51:43;6.57;;;1.20;;
68250;SDS011;55066;51.560;4.642;2022-10-15T16:54:10;3.73;;;1.10;;
68250;SDS011;55066;51.560;4.642;2022-10-15T16:56:37;5.32;;;1.20;;
68250;SDS011;55066;51.560;4.642;2022-10-15T16:59:03;7.88;;;1.48;;
68250;SDS011;55066;51.560;4.642;2022-10-15T17:01:28;3.87;;;1.13;;